sensor_id;sensor_type;location;lat;lon;timestamp;temperature;humidity
53954;HTU21D;39862;54.856;26.318;2022-09-11T02:14:14;14.2;49.5
53954;HTU21D;39862;54.856;26.318;2022-09-11T02:19:05;12.3;61.7
53954;HTU21D;39862;54.856;26.318;2022-09-11T02:23:40;12.3;62.1
53954;HTU21D;39862;54.856;26.318;2022-09-11T02:29:02;12.2;62.2
53954;HTU21D;39862;54.856;26.318;2022-09-11T02:33:49;12.2;62.4
53954;HTU21D;39862;54.856;26.318;2022-09-11T02:40:05;12.2;62.6
53954;HTU21D;39862;54.856;26.318;2022-09-11T02:43:22;12.1;63
53954;HTU21D;39862;54.856;26.318;2022-09-11T02:48:31;12.1;63.1
53954;HTU21D;39862;54.856;26.318;2022-09-11T02:54:07;12.1;63.5
53954;HTU21D;39862;54.856;26.318;2022-09-11T02:58:53;12;63.8
53954;HTU21D;39862;54.856;26.318;2022-09-11T03:03:38;12;64.4
53954;HTU21D;39862;54.856;26.318;2022-09-11T03:09:04;11.9;64.9
53954;HTU21D;39862;54.856;26.318;2022-09-11T03:13:48;11.9;65
53954;HTU21D;39862;54.856;26.318;2022-09-11T03:18:37;11.9;65.2
53954;HTU21D;39862;54.856;26.318;2022-09-11T03:23:16;11.9;65.6
53954;HTU21D;39862;54.856;26.318;2022-09-11T03:29:03;11.9;65.7
53954;HTU21D;39862;54.856;26.318;2022-09-11T03:33:48;11.9;65.6
53954;HTU21D;39862;54.856;26.318;2022-09-11T03:38:16;11.9;65.7
53954;HTU21D;39862;54.856;26.318;2022-09-11T03:44:04;11.9;65.9
53954;HTU21D;39862;54.856;26.318;2022-09-11T03:49:03;11.9;66.2
53954;HTU21D;39862;54.856;26.318;2022-09-11T03:54:03;11.8;66.4
53954;HTU21D;39862;54.856;26.318;2022-09-11T03:58:39;11.8;66.4
53954;HTU21D;39862;54.856;26.318;2022-09-11T04:04:02;11.8;66.4
53954;HTU21D;39862;54.856;26.318;2022-09-11T04:09:04;11.8;66.3
53954;HTU21D;39862;54.856;26.318;2022-09-11T04:13:16;11.8;66.3
53954;HTU21D;39862;54.856;26.318;2022-09-11T04:18:37;11.8;66.4
53954;HTU21D;39862;54.856;26.318;2022-09-11T04:23:17;11.8;66.5
53954;HTU21D;39862;54.856;26.318;2022-09-11T04:28:27;11.8;66.6
53954;HTU21D;39862;54.856;26.318;2022-09-11T04:33:27;11.8;66.7
53954;HTU21D;39862;54.856;26.318;2022-09-11T04:38:40;11.8;67
53954;HTU21D;39862;54.856;26.318;2022-09-11T04:44:04;11.8;67.1
53954;HTU21D;39862;54.856;26.318;2022-09-11T04:48:47;11.8;67.2
53954;HTU21D;39862;54.856;26.318;2022-09-11T04:53:38;11.8;67.5
53954;HTU21D;39862;54.856;26.318;2022-09-11T04:59:07;11.8;67.7
53954;HTU21D;39862;54.856;26.318;2022-09-11T05:03:46;11.8;68
53954;HTU21D;39862;54.856;26.318;2022-09-11T05:09:05;11.8;68.3
53954;HTU21D;39862;54.856;26.318;2022-09-11T05:13:27;11.8;68.4
53954;HTU21D;39862;54.856;26.318;2022-09-11T05:18:29;11.8;68.5
53954;HTU21D;39862;54.856;26.318;2022-09-11T05:23:27;11.8;68.7
53954;HTU21D;39862;54.856;26.318;2022-09-11T05:29:05;11.8;68.6
53954;HTU21D;39862;54.856;26.318;2022-09-11T05:33:52;11.8;69
53954;HTU21D;39862;54.856;26.318;2022-09-11T05:38:53;11.8;69
53954;HTU21D;39862;54.856;26.318;2022-09-11T05:43:56;11.9;69
53954;HTU21D;39862;54.856;26.318;2022-09-11T05:48:47;11.9;69.3
53954;HTU21D;39862;54.856;26.318;2022-09-11T05:53:52;11.8;69.5
53954;HTU21D;39862;54.856;26.318;2022-09-11T05:59:08;11.9;69.7
53954;HTU21D;39862;54.856;26.318;2022-09-11T06:03:17;11.9;69.6
53954;HTU21D;39862;54.856;26.318;2022-09-11T06:08:17;11.9;69.7
53954;HTU21D;39862;54.856;26.318;2022-09-11T06:13:17;12;69.8
53954;HTU21D;39862;54.856;26.318;2022-09-11T06:19:06;12;69.8
53954;HTU21D;39862;54.856;26.318;2022-09-11T06:23:53;12;70.1
53954;HTU21D;39862;54.856;26.318;2022-09-11T06:28:16;12;70.5
53954;HTU21D;39862;54.856;26.318;2022-09-11T06:33:41;12;70.4
53954;HTU21D;39862;54.856;26.318;2022-09-11T06:38:53;12;70.5
53954;HTU21D;39862;54.856;26.318;2022-09-11T06:44:05;12;70.7
53954;HTU21D;39862;54.856;26.318;2022-09-11T06:48:37;12.1;70.8
53954;HTU21D;39862;54.856;26.318;2022-09-11T06:53:17;12.1;70.8
53954;HTU21D;39862;54.856;26.318;2022-09-11T06:58:17;12.2;70.8
53954;HTU21D;39862;54.856;26.318;2022-09-11T07:03:17;12.2;70.9
53954;HTU21D;39862;54.856;26.318;2022-09-11T07:08:41;12.2;71
53954;HTU21D;39862;54.856;26.318;2022-09-11T07:13:43;12.3;71.1
53954;HTU21D;39862;54.856;26.318;2022-09-11T07:18:49;12.4;71.2
53954;HTU21D;39862;54.856;26.318;2022-09-11T07:24:07;12.4;71.4
53954;HTU21D;39862;54.856;26.318;2022-09-11T07:28:41;12.5;71.5
53954;HTU21D;39862;54.856;26.318;2022-09-11T07:34:06;12.5;71.8
53954;HTU21D;39862;54.856;26.318;2022-09-11T07:39:07;12.6;71.7
53954;HTU21D;39862;54.856;26.318;2022-09-11T07:43:17;12.7;71.7
53954;HTU21D;39862;54.856;26.318;2022-09-11T07:48:17;12.8;71.5
53954;HTU21D;39862;54.856;26.318;2022-09-11T07:53:17;12.9;71.4
53954;HTU21D;39862;54.856;26.318;2022-09-11T07:59:06;13;71.4
53954;HTU21D;39862;54.856;26.318;2022-09-11T08:03:54;13;71.5
53954;HTU21D;39862;54.856;26.318;2022-09-11T08:08:53;13;71.4
53954;HTU21D;39862;54.856;26.318;2022-09-11T08:13:55;13.1;71.2
53954;HTU21D;39862;54.856;26.318;2022-09-11T08:18:51;13.2;71.1
53954;HTU21D;39862;54.856;26.318;2022-09-11T08:23:17;13.2;71.3
53954;HTU21D;39862;54.856;26.318;2022-09-11T08:28:51;13.3;71.5
53954;HTU21D;39862;54.856;26.318;2022-09-11T08:34:08;13.3;71.5
53954;HTU21D;39862;54.856;26.318;2022-09-11T08:38:17;13.4;71.5
53954;HTU21D;39862;54.856;26.318;2022-09-11T08:43:49;13.4;71.6
53954;HTU21D;39862;54.856;26.318;2022-09-11T08:53:53;13.5;71.8
53954;HTU21D;39862;54.856;26.318;2022-09-11T08:58:50;13.6;71.8
53954;HTU21D;39862;54.856;26.318;2022-09-11T09:03:22;13.7;71.8
53954;HTU21D;39862;54.856;26.318;2022-09-11T09:08:49;13.7;71.7
53954;HTU21D;39862;54.856;26.318;2022-09-11T09:14:02;13.8;71.8
53954;HTU21D;39862;54.856;26.318;2022-09-11T09:18:21;13.9;71.8
53954;HTU21D;39862;54.856;26.318;2022-09-11T09:23:18;13.9;71.8
53954;HTU21D;39862;54.856;26.318;2022-09-11T09:28:32;14;71.8
53954;HTU21D;39862;54.856;26.318;2022-09-11T09:33:20;14;71.6
53954;HTU21D;39862;54.856;26.318;2022-09-11T09:38:39;14.1;71.6
53954;HTU21D;39862;54.856;26.318;2022-09-11T09:44:25;14.2;71.5
53954;HTU21D;39862;54.856;26.318;2022-09-11T09:49:06;14.3;71.4
53954;HTU21D;39862;54.856;26.318;2022-09-11T09:53:55;14.3;71.2
53954;HTU21D;39862;54.856;26.318;2022-09-11T09:58:29;14.4;71.2
53954;HTU21D;39862;54.856;26.318;2022-09-11T10:04:08;14.4;71
53954;HTU21D;39862;54.856;26.318;2022-09-11T10:08:49;14.5;71
53954;HTU21D;39862;54.856;26.318;2022-09-11T10:14:05;14.5;70.9
53954;HTU21D;39862;54.856;26.318;2022-09-11T10:18:48;14.5;70.8
53954;HTU21D;39862;54.856;26.318;2022-09-11T10:23:22;14.5;70.7
53954;HTU21D;39862;54.856;26.318;2022-09-11T10:29:07;14.5;70.7
53954;HTU21D;39862;54.856;26.318;2022-09-11T10:33:52;14.5;70.7
53954;HTU21D;39862;54.856;26.318;2022-09-11T10:38:45;14.5;70.8
53954;HTU21D;39862;54.856;26.318;2022-09-11T10:43:54;14.6;70.9
53954;HTU21D;39862;54.856;26.318;2022-09-11T10:48:53;14.6;70.9
53954;HTU21D;39862;54.856;26.318;2022-09-11T10:53:46;14.7;71
53954;HTU21D;39862;54.856;26.318;2022-09-11T10:58:56;14.7;71
53954;HTU21D;39862;54.856;26.318;2022-09-11T11:04:08;14.7;71
53954;HTU21D;39862;54.856;26.318;2022-09-11T11:08:41;14.8;71.1
53954;HTU21D;39862;54.856;26.318;2022-09-11T11:20:06;14.9;70.9
53954;HTU21D;39862;54.856;26.318;2022-09-11T11:30:11;14.9;70.8
53954;HTU21D;39862;54.856;26.318;2022-09-11T11:39:11;14.9;70.7
53954;HTU21D;39862;54.856;26.318;2022-09-11T11:44:08;14.9;70.6
53954;HTU21D;39862;54.856;26.318;2022-09-11T11:48:40;15;70.5
53954;HTU21D;39862;54.856;26.318;2022-09-11T11:53:41;14.9;70.4
53954;HTU21D;39862;54.856;26.318;2022-09-11T11:58:37;15;70.4
53954;HTU21D;39862;54.856;26.318;2022-09-11T12:03:19;15;70.5
53954;HTU21D;39862;54.856;26.318;2022-09-11T12:08:25;14.9;70.6
53954;HTU21D;39862;54.856;26.318;2022-09-11T12:13:42;15;70.7
53954;HTU21D;39862;54.856;26.318;2022-09-11T12:19:13;15;70.8
53954;HTU21D;39862;54.856;26.318;2022-09-11T12:24:20;15;70.8
53954;HTU21D;39862;54.856;26.318;2022-09-11T12:28:29;15.1;70.7
53954;HTU21D;39862;54.856;26.318;2022-09-11T12:34:03;15.1;70.9
53954;HTU21D;39862;54.856;26.318;2022-09-11T12:38:51;15.1;71.1
53954;HTU21D;39862;54.856;26.318;2022-09-11T12:44:27;15.2;71.2
53954;HTU21D;39862;54.856;26.318;2022-09-11T12:48:18;15.2;71.4
53954;HTU21D;39862;54.856;26.318;2022-09-11T12:53:28;15.3;71.4
53954;HTU21D;39862;54.856;26.318;2022-09-11T12:59:05;15.4;71.2
53954;HTU21D;39862;54.856;26.318;2022-09-11T13:03:51;15.4;71
53954;HTU21D;39862;54.856;26.318;2022-09-11T13:08:28;15.4;71
53954;HTU21D;39862;54.856;26.318;2022-09-11T13:13:55;15.5;71
53954;HTU21D;39862;54.856;26.318;2022-09-11T13:18:49;15.6;71.1
53954;HTU21D;39862;54.856;26.318;2022-09-11T13:23:39;15.6;71.3
53954;HTU21D;39862;54.856;26.318;2022-09-11T13:28:54;15.6;71.2
53954;HTU21D;39862;54.856;26.318;2022-09-11T13:34:06;15.7;71.3
53954;HTU21D;39862;54.856;26.318;2022-09-11T13:38:28;15.7;71.4
53954;HTU21D;39862;54.856;26.318;2022-09-11T13:43:17;15.8;71.3
53954;HTU21D;39862;54.856;26.318;2022-09-11T13:49:33;15.8;71
53954;HTU21D;39862;54.856;26.318;2022-09-11T13:54:07;15.9;70.7
53954;HTU21D;39862;54.856;26.318;2022-09-11T13:59:35;15.9;70.4
53954;HTU21D;39862;54.856;26.318;2022-09-11T14:03:55;16;70.3
53954;HTU21D;39862;54.856;26.318;2022-09-11T14:09:12;16;70.1
53954;HTU21D;39862;54.856;26.318;2022-09-11T14:14:08;16;69.9
53954;HTU21D;39862;54.856;26.318;2022-09-11T14:18:44;16.1;69.7
53954;HTU21D;39862;54.856;26.318;2022-09-11T14:23:40;16.1;69.6
53954;HTU21D;39862;54.856;26.318;2022-09-11T14:28:32;16.1;69.4
53954;HTU21D;39862;54.856;26.318;2022-09-11T14:33:21;16.1;69.2
53954;HTU21D;39862;54.856;26.318;2022-09-11T14:38:17;16;69
53954;HTU21D;39862;54.856;26.318;2022-09-11T14:43:41;16;68.7
53954;HTU21D;39862;54.856;26.318;2022-09-11T14:48:41;15.9;68.5
53954;HTU21D;39862;54.856;26.318;2022-09-11T14:53:51;15.8;68.4
53954;HTU21D;39862;54.856;26.318;2022-09-11T14:59:07;15.8;68.3
53954;HTU21D;39862;54.856;26.318;2022-09-11T15:03:41;15.7;68.3
53954;HTU21D;39862;54.856;26.318;2022-09-11T15:09:07;15.6;68.3
53954;HTU21D;39862;54.856;26.318;2022-09-11T15:14:05;15.6;68.5
53954;HTU21D;39862;54.856;26.318;2022-09-11T15:18:17;15.5;68.6
53954;HTU21D;39862;54.856;26.318;2022-09-11T15:23:27;15.5;68.7
53954;HTU21D;39862;54.856;26.318;2022-09-11T15:28:41;15.5;68.8
53954;HTU21D;39862;54.856;26.318;2022-09-11T15:43:41;15.4;69.2
53954;HTU21D;39862;54.856;26.318;2022-09-11T15:49:05;15.4;69.6
53954;HTU21D;39862;54.856;26.318;2022-09-11T15:53:49;15.4;69.6
53954;HTU21D;39862;54.856;26.318;2022-09-11T15:58:27;15.4;69.6
53954;HTU21D;39862;54.856;26.318;2022-09-11T16:03:54;15.4;69.4
53954;HTU21D;39862;54.856;26.318;2022-09-11T16:08:27;15.3;69.3
53954;HTU21D;39862;54.856;26.318;2022-09-11T16:13:27;15.3;69.1
53954;HTU21D;39862;54.856;26.318;2022-09-11T16:18:37;15.3;69
53954;HTU21D;39862;54.856;26.318;2022-09-11T16:24:07;15.3;68.9
53954;HTU21D;39862;54.856;26.318;2022-09-11T16:28:53;15.3;68.7
53954;HTU21D;39862;54.856;26.318;2022-09-11T16:33:40;15.3;68.2
53954;HTU21D;39862;54.856;26.318;2022-09-11T16:38:41;15.3;68
53954;HTU21D;39862;54.856;26.318;2022-09-11T16:43:55;15.2;68
53954;HTU21D;39862;54.856;26.318;2022-09-11T16:49:07;15.2;67.9
53954;HTU21D;39862;54.856;26.318;2022-09-11T16:53:39;15.2;67.9
53954;HTU21D;39862;54.856;26.318;2022-09-11T16:58:17;15.1;68
53954;HTU21D;39862;54.856;26.318;2022-09-11T17:03:27;15.1;68
53954;HTU21D;39862;54.856;26.318;2022-09-11T17:08:29;15.1;68
53954;HTU21D;39862;54.856;26.318;2022-09-11T17:13:41;15;68.1
53954;HTU21D;39862;54.856;26.318;2022-09-11T17:18:44;15;68.2
53954;HTU21D;39862;54.856;26.318;2022-09-11T17:23:39;14.9;68.3
53954;HTU21D;39862;54.856;26.318;2022-09-11T17:29:07;14.9;68.3
53954;HTU21D;39862;54.856;26.318;2022-09-11T17:33:49;14.9;68.3
53954;HTU21D;39862;54.856;26.318;2022-09-11T17:39:05;14.9;68.4
53954;HTU21D;39862;54.856;26.318;2022-09-11T17:44:05;14.8;68.5
53954;HTU21D;39862;54.856;26.318;2022-09-11T17:48:17;14.8;68.5
53954;HTU21D;39862;54.856;26.318;2022-09-11T17:53:17;14.8;68.5
53954;HTU21D;39862;54.856;26.318;2022-09-11T17:58:27;14.8;68.5
53954;HTU21D;39862;54.856;26.318;2022-09-11T18:04:05;14.7;68.4
53954;HTU21D;39862;54.856;26.318;2022-09-11T18:08:39;14.7;68.4
53954;HTU21D;39862;54.856;26.318;2022-09-11T18:13:53;14.7;68.3
53954;HTU21D;39862;54.856;26.318;2022-09-11T18:18:53;14.6;68.3
53954;HTU21D;39862;54.856;26.318;2022-09-11T18:23:51;14.6;68.2
53954;HTU21D;39862;54.856;26.318;2022-09-11T18:28:37;14.6;68.2
53954;HTU21D;39862;54.856;26.318;2022-09-11T18:33:54;14.5;68.2
53954;HTU21D;39862;54.856;26.318;2022-09-11T18:38:29;14.5;68.2
53954;HTU21D;39862;54.856;26.318;2022-09-11T18:43:37;14.5;68.2
53954;HTU21D;39862;54.856;26.318;2022-09-11T18:48:29;14.4;68.2
53954;HTU21D;39862;54.856;26.318;2022-09-11T18:54:05;14.4;68.1
53954;HTU21D;39862;54.856;26.318;2022-09-11T18:59:08;14.3;67.9
53954;HTU21D;39862;54.856;26.318;2022-09-11T19:04:08;14.3;67.6
53954;HTU21D;39862;54.856;26.318;2022-09-11T19:08:40;14.2;67.4
53954;HTU21D;39862;54.856;26.318;2022-09-11T19:13:55;14.1;67.4
53954;HTU21D;39862;54.856;26.318;2022-09-11T19:19:05;14;67.5
53954;HTU21D;39862;54.856;26.318;2022-09-11T19:23:28;14;67.8
53954;HTU21D;39862;54.856;26.318;2022-09-11T19:28:40;13.9;68.2
53954;HTU21D;39862;54.856;26.318;2022-09-11T19:33:28;13.9;68.3
53954;HTU21D;39862;54.856;26.318;2022-09-11T19:38:39;13.9;68.4
53954;HTU21D;39862;54.856;26.318;2022-09-11T19:43:53;13.9;68.6
53954;HTU21D;39862;54.856;26.318;2022-09-11T19:48:17;13.9;68.6
53954;HTU21D;39862;54.856;26.318;2022-09-11T19:54:05;13.8;68.8
53954;HTU21D;39862;54.856;26.318;2022-09-11T19:58:49;13.8;68.8
53954;HTU21D;39862;54.856;26.318;2022-09-11T20:03:17;13.8;68.9
53954;HTU21D;39862;54.856;26.318;2022-09-11T20:09:05;13.8;69.2
53954;HTU21D;39862;54.856;26.318;2022-09-11T20:14:05;13.8;69.4
53954;HTU21D;39862;54.856;26.318;2022-09-11T20:19:05;13.7;69.4
53954;HTU21D;39862;54.856;26.318;2022-09-11T20:23:31;13.7;69.3
53954;HTU21D;39862;54.856;26.318;2022-09-11T20:28:29;13.7;69
53954;HTU21D;39862;54.856;26.318;2022-09-11T20:34:05;13.6;68.7
53954;HTU21D;39862;54.856;26.318;2022-09-11T20:38:52;13.5;68.4
53954;HTU21D;39862;54.856;26.318;2022-09-11T20:43:41;13.5;68.1
53954;HTU21D;39862;54.856;26.318;2022-09-11T20:48:55;13.4;67.8
53954;HTU21D;39862;54.856;26.318;2022-09-11T20:53:51;13.3;67.6
53954;HTU21D;39862;54.856;26.318;2022-09-11T20:58:45;13.2;67.5
53954;HTU21D;39862;54.856;26.318;2022-09-11T21:03:54;13.1;67.5
53954;HTU21D;39862;54.856;26.318;2022-09-11T21:09:06;13;67.4
53954;HTU21D;39862;54.856;26.318;2022-09-11T21:13:29;12.9;67.3
53954;HTU21D;39862;54.856;26.318;2022-09-11T21:18:27;12.8;67.3
53954;HTU21D;39862;54.856;26.318;2022-09-11T21:23:58;12.7;67.3
53954;HTU21D;39862;54.856;26.318;2022-09-11T21:29:07;12.7;67.4
53954;HTU21D;39862;54.856;26.318;2022-09-11T21:34:09;12.7;67.7
53954;HTU21D;39862;54.856;26.318;2022-09-11T21:38:18;12.6;68
53954;HTU21D;39862;54.856;26.318;2022-09-11T21:44:07;12.6;68.3
53954;HTU21D;39862;54.856;26.318;2022-09-11T21:49:09;12.6;68.8
53954;HTU21D;39862;54.856;26.318;2022-09-11T21:53:17;12.6;69
53954;HTU21D;39862;54.856;26.318;2022-09-11T21:58:18;12.6;69.2
53954;HTU21D;39862;54.856;26.318;2022-09-11T22:03:29;12.6;69.4
53954;HTU21D;39862;54.856;26.318;2022-09-11T22:08:17;12.6;69.5
53954;HTU21D;39862;54.856;26.318;2022-09-11T22:13:30;12.6;69.6
53954;HTU21D;39862;54.856;26.318;2022-09-11T22:18:41;12.6;69.8
53954;HTU21D;39862;54.856;26.318;2022-09-11T22:24:09;12.6;70
53954;HTU21D;39862;54.856;26.318;2022-09-11T22:28:51;12.6;70.2
53954;HTU21D;39862;54.856;26.318;2022-09-11T22:33:27;12.6;70.2
53954;HTU21D;39862;54.856;26.318;2022-09-11T22:39:05;12.6;70.3
53954;HTU21D;39862;54.856;26.318;2022-09-11T22:43:41;12.6;70.3
